createdAt,value
2019-06-10T00:02:08.213Z,95453.02
2019-06-10T00:04:35.093Z,95444.66
2019-06-10T00:07:03.780Z,95445.98
2019-06-10T00:09:31.233Z,95438.30
2019-06-10T00:11:58.398Z,95414.45
2019-06-10T00:14:25.272Z,95436.31
2019-06-10T00:16:51.947Z,95432.82
2019-06-10T00:19:21.429Z,95424.69
2019-06-10T00:21:47.272Z,95430.42
2019-06-10T00:24:13.988Z,95424.91
2019-06-10T00:26:41.328Z,95422.81
2019-06-10T00:29:09.716Z,95427.41
2019-06-10T00:31:36.882Z,95423.73
2019-06-10T00:34:05.071Z,95424.52
2019-06-10T00:36:32.501Z,95424.48
2019-06-10T00:38:59.389Z,95424.09
2019-06-10T00:41:26.074Z,95424.09
2019-06-10T00:43:52.888Z,95424.41
2019-06-10T00:46:21.227Z,95431.17
2019-06-10T00:48:48.163Z,95423.67
2019-06-10T00:51:14.824Z,95423.67
2019-06-10T00:53:42.327Z,95419.47
2019-06-10T00:56:12.155Z,95418.86
2019-06-10T00:58:37.808Z,95425.19
2019-06-10T01:01:05.981Z,95427.58
2019-06-10T01:03:32.943Z,95431.66
2019-06-10T01:06:01.579Z,95428.16
2019-06-10T01:08:28.362Z,95427.78
2019-06-10T01:10:55.192Z,95403.60
2019-06-10T01:13:22.863Z,95403.60
2019-06-10T01:15:51.099Z,95416.60
2019-06-10T01:18:34.593Z,95416.60
2019-06-10T01:20:47.575Z,95398.98
2019-06-10T01:23:15.693Z,95392.28
2019-06-10T01:25:42.815Z,95384.48
2019-06-10T01:28:12.557Z,95384.48
2019-06-10T01:30:41.011Z,95404.56
2019-06-10T01:33:08.186Z,95392.20
2019-06-10T01:35:35.893Z,95392.20
2019-06-10T01:38:02.633Z,95370.72
2019-06-10T01:40:31.401Z,95383.99
2019-06-10T01:42:57.985Z,95383.99
2019-06-10T01:45:24.755Z,95394.21
2019-06-10T01:47:51.512Z,95394.45
2019-06-10T01:50:19.620Z,95400.86
2019-06-10T01:52:47.091Z,95402.77
2019-06-10T01:55:15.300Z,95389.27
2019-06-10T01:57:42.455Z,95404.89
2019-06-10T02:00:17.045Z,95400.48
2019-06-10T02:02:38.830Z,95400.48
2019-06-10T02:05:06.191Z,95398.84
2019-06-10T02:07:33.011Z,95399.98
2019-06-10T02:10:01.135Z,95400.80
2019-06-10T02:12:28.211Z,95404.59
2019-06-10T02:14:54.849Z,95403.17
2019-06-10T02:17:23.914Z,95388.89
2019-06-10T02:19:51.043Z,95388.89
2019-06-10T02:22:18.515Z,95408.94
2019-06-10T02:24:46.468Z,95409.86
2019-06-10T02:27:14.488Z,95408.48
2019-06-10T02:29:41.499Z,95406.69
2019-06-10T02:32:08.352Z,95386.62
2019-06-10T02:34:42.774Z,95386.62
2019-06-10T02:37:04.755Z,95405.63
2019-06-10T02:39:37.603Z,95404.27
2019-06-10T02:42:04.434Z,95404.10
2019-06-10T02:44:34.339Z,95400.28
2019-06-10T02:47:03.139Z,95400.49
2019-06-10T02:49:51.555Z,95395.33
2019-06-10T02:51:57.568Z,95390.70
2019-06-10T02:54:31.339Z,95377.98
2019-06-10T02:56:53.928Z,95377.98
2019-06-10T02:59:26.604Z,95394.17
2019-06-10T03:01:49.667Z,95383.16
2019-06-10T03:04:18.127Z,95381.44
2019-06-10T03:06:45.197Z,95384.95
2019-06-10T03:09:14.152Z,95389.12
2019-06-10T03:11:44.528Z,95390.55
2019-06-10T03:14:09.911Z,95395.81
2019-06-10T03:16:44.524Z,95394.75
2019-06-10T03:19:13.192Z,95389.48
2019-06-10T03:21:39.878Z,95391.92
2019-06-10T03:24:06.631Z,95392.36
2019-06-10T03:26:33.372Z,95392.13
2019-06-10T03:29:02.521Z,95382.55
2019-06-10T03:31:40.171Z,95382.02
2019-06-10T03:33:57.336Z,95376.38
2019-06-10T03:36:25.751Z,95379.12
2019-06-10T03:38:53.753Z,95372.28
2019-06-10T03:41:23.285Z,95374.52
2019-06-10T03:43:49.311Z,95382.42
2019-06-10T03:46:17.249Z,95379.35
2019-06-10T03:48:44.186Z,95386.55
2019-06-10T03:51:12.617Z,95383.67
2019-06-10T03:53:39.771Z,95385.30
2019-06-10T03:56:06.419Z,95374.66
2019-06-10T03:58:33.083Z,95380.12
2019-06-10T04:00:59.790Z,95384.72
2019-06-10T04:03:28.099Z,95379.63
2019-06-10T04:05:56.175Z,95379.91
2019-06-10T04:08:23.941Z,95381.20
2019-06-10T04:10:52.061Z,95373.76
2019-06-10T04:13:19.488Z,95371.11
2019-06-10T04:15:46.385Z,95371.11
2019-06-10T04:18:13.173Z,95396.01
2019-06-10T04:20:42.669Z,95385.59
2019-06-10T04:23:08.550Z,95391.82
2019-06-10T04:25:38.844Z,95387.72
2019-06-10T04:28:05.531Z,95407.61
2019-06-10T04:30:32.586Z,95402.28
2019-06-10T04:32:59.470Z,95402.28
2019-06-10T04:35:27.448Z,95393.27
2019-06-10T04:37:54.790Z,95392.49
2019-06-10T04:40:23.528Z,95394.77
2019-06-10T04:42:52.403Z,95394.74
2019-06-10T04:45:18.762Z,95389.36
2019-06-10T04:47:45.675Z,95396.63
2019-06-10T04:50:24.044Z,95398.16
2019-06-10T04:52:43.076Z,95397.50
2019-06-10T04:55:12.871Z,95395.50
2019-06-10T04:57:39.619Z,95396.31
2019-06-10T05:00:13.835Z,95393.97
2019-06-10T05:02:36.343Z,95393.77
2019-06-10T05:05:03.632Z,95399.37
2019-06-10T05:07:36.017Z,95402.26
2019-06-10T05:09:59.292Z,95395.89
2019-06-10T05:12:26.780Z,95398.89
2019-06-10T05:14:54.691Z,95403.80
2019-06-10T05:17:22.225Z,95408.14
2019-06-10T05:19:49.964Z,95406.38
2019-06-10T05:22:17.693Z,95409.52
2019-06-10T05:24:44.434Z,95404.34
2019-06-10T05:27:12.524Z,95401.55
2019-06-10T05:29:39.456Z,95400.09
2019-06-10T05:32:06.252Z,95410.26
2019-06-10T05:34:34.680Z,95413.92
2019-06-10T05:37:02.701Z,95408.17
2019-06-10T05:39:30.730Z,95414.98
2019-06-10T05:41:58.233Z,95407.06
2019-06-10T05:44:25.795Z,95407.88
2019-06-10T05:46:53.496Z,95413.20
2019-06-10T05:49:24.172Z,95404.54
2019-06-10T05:51:52.681Z,95406.84
2019-06-10T05:54:23.032Z,95409.78
2019-06-10T05:56:52.045Z,95408.66
2019-06-10T05:59:18.425Z,95398.73
2019-06-10T06:01:45.115Z,95401.56
2019-06-10T06:04:12.686Z,95400.55
2019-06-10T06:06:42.487Z,95399.68
2019-06-10T06:09:08.493Z,95397.63
2019-06-10T06:11:35.391Z,95392.38
2019-06-10T06:14:02.791Z,95391.55
2019-06-10T06:16:30.494Z,95389.89
2019-06-10T06:18:58.270Z,95378.93
2019-06-10T06:21:31.489Z,95385.12
2019-06-10T06:23:53.733Z,95382.26
2019-06-10T06:26:23.535Z,95382.00
2019-06-10T06:28:53.303Z,95376.81
2019-06-10T06:31:19.502Z,95378.13
2019-06-10T06:33:47.239Z,95374.08
2019-06-10T06:36:13.994Z,95370.78
2019-06-10T06:38:40.805Z,95371.33
2019-06-10T06:41:07.488Z,95372.98
2019-06-10T06:43:39.990Z,95374.28
2019-06-10T06:46:02.910Z,95379.87
2019-06-10T06:48:30.010Z,95376.86
2019-06-10T06:51:04.374Z,95368.39
2019-06-10T06:53:33.090Z,95366.55
2019-06-10T06:55:56.053Z,95365.42
2019-06-10T06:58:23.262Z,95363.95
2019-06-10T07:01:03.725Z,95357.07
2019-06-10T07:03:18.771Z,95354.64
2019-06-10T07:05:45.592Z,95351.42
2019-06-10T07:08:18.622Z,95352.23
2019-06-10T07:10:46.004Z,95357.16
2019-06-10T07:13:12.995Z,95351.56
2019-06-10T07:15:48.001Z,95354.76
2019-06-10T07:18:14.710Z,95357.63
2019-06-10T07:20:45.620Z,95358.67
2019-06-10T07:23:12.950Z,95354.30
2019-06-10T07:25:42.254Z,95355.89
2019-06-10T07:28:08.335Z,95358.53
2019-06-10T07:30:38.873Z,95357.06
2019-06-10T07:33:03.784Z,95363.48
2019-06-10T07:35:32.599Z,95368.05
2019-06-10T07:37:59.190Z,95367.59
2019-06-10T07:40:25.907Z,95363.13
2019-06-10T07:42:53.054Z,95367.09
2019-06-10T07:45:22.156Z,95363.88
2019-06-10T07:47:49.094Z,95366.19
2019-06-10T07:50:18.371Z,95370.05
2019-06-10T07:52:46.805Z,95370.78
2019-06-10T07:55:15.155Z,95372.48
2019-06-10T07:57:43.924Z,95375.29
2019-06-10T08:00:13.440Z,95376.41
2019-06-10T08:02:42.813Z,95363.72
2019-06-10T08:05:08.993Z,95362.48
2019-06-10T08:07:36.727Z,95366.98
2019-06-10T08:10:05.891Z,95357.94
2019-06-10T08:12:32.670Z,95357.31
2019-06-10T08:15:02.558Z,95359.09
2019-06-10T08:17:28.132Z,95351.22
2019-06-10T08:19:54.884Z,95351.80
2019-06-10T08:22:31.228Z,95354.45
2019-06-10T08:24:52.394Z,95350.69
2019-06-10T08:27:18.904Z,95344.00
2019-06-10T08:29:49.162Z,95344.84
2019-06-10T08:32:14.452Z,95343.34
2019-06-10T08:34:44.625Z,95341.91
2019-06-10T08:37:09.909Z,95334.58
2019-06-10T08:39:36.574Z,95338.59
2019-06-10T08:42:03.366Z,95338.27
2019-06-10T08:44:32.603Z,95335.72
2019-06-10T08:46:58.713Z,95339.98
2019-06-10T08:49:26.551Z,95336.16
2019-06-10T08:51:53.776Z,95336.16
2019-06-10T08:54:23.262Z,95333.77
2019-06-10T08:56:50.904Z,95342.00
2019-06-10T08:59:17.849Z,95328.73
2019-06-10T09:01:48.387Z,95322.45
2019-06-10T09:04:13.487Z,95315.13
2019-06-10T09:06:43.314Z,95306.20
2019-06-10T09:09:09.027Z,95302.72
2019-06-10T09:11:35.784Z,95309.94
2019-06-10T09:14:02.688Z,95303.38
2019-06-10T09:16:31.978Z,95298.95
2019-06-10T09:18:58.095Z,95303.97
2019-06-10T09:21:24.896Z,95299.36
2019-06-10T09:23:59.061Z,95299.14
2019-06-10T09:26:22.694Z,95302.30
2019-06-10T09:28:52.670Z,95293.52
2019-06-10T09:31:17.421Z,95299.83
2019-06-10T09:33:49.863Z,95298.27
2019-06-10T09:36:12.758Z,95297.59
2019-06-10T09:38:40.658Z,95297.59
2019-06-10T09:41:08.238Z,95294.26
2019-06-10T09:43:34.915Z,95292.33
2019-06-10T09:46:03.576Z,95291.94
2019-06-10T09:48:30.472Z,95282.33
2019-06-10T09:50:58.967Z,95276.70
2019-06-10T09:53:32.844Z,95271.97
2019-06-10T09:55:55.726Z,95279.45
2019-06-10T09:58:23.766Z,95264.62
2019-06-10T10:00:58.333Z,95272.88
2019-06-10T10:03:25.579Z,95267.17
2019-06-10T10:05:59.418Z,95262.56
2019-06-10T10:08:23.268Z,95254.73
2019-06-10T10:10:55.914Z,95252.82
2019-06-10T10:13:18.510Z,95255.88
2019-06-10T10:15:45.649Z,95243.14
2019-06-10T10:18:13.401Z,95246.73
2019-06-10T10:20:44.833Z,95240.66
2019-06-10T11:17:47.294Z,95226.95
2019-06-10T11:20:14.252Z,95235.33
2019-06-10T11:22:43.278Z,95231.30
2019-06-10T11:25:09.649Z,95228.55
2019-06-10T11:27:36.366Z,95214.00
2019-06-10T11:30:05.718Z,95205.04
2019-06-10T11:32:32.822Z,95195.03
2019-06-10T11:34:59.693Z,95188.15
2019-06-10T11:37:26.395Z,95189.44
2019-06-10T11:39:54.875Z,95192.73
2019-06-10T11:42:23.309Z,95187.97
2019-06-10T11:44:51.341Z,95193.19
2019-06-10T11:47:18.887Z,95184.85
2019-06-10T11:49:46.853Z,95187.49
2019-06-10T11:52:13.872Z,95179.02
2019-06-10T11:54:53.658Z,95181.00
2019-06-10T11:57:09.159Z,95181.70
2019-06-10T11:59:35.959Z,95185.91
2019-06-10T12:02:06.004Z,95179.41
2019-06-10T12:04:31.459Z,95180.16
2019-06-10T12:06:59.068Z,95177.57
2019-06-10T12:09:26.032Z,95168.49
2019-06-10T12:11:55.133Z,95163.42
2019-06-10T12:14:26.290Z,95154.76
2019-06-10T12:17:17.598Z,95139.08
2019-06-10T12:19:19.004Z,95123.48
2019-06-10T12:21:45.752Z,95118.48
2019-06-10T12:24:12.889Z,95109.93
2019-06-10T12:26:43.428Z,95110.31
2019-06-10T12:29:12.244Z,95107.05
2019-06-10T12:31:38.480Z,95103.47
2019-06-10T12:34:06.021Z,95109.48
2019-06-10T12:36:33.195Z,95122.13
2019-06-10T12:39:06.755Z,95113.56
2019-06-10T12:41:30.379Z,95115.73
2019-06-10T12:43:58.368Z,95117.56
2019-06-10T12:46:25.183Z,95122.13
2019-06-10T12:48:55.871Z,95126.01
2019-06-10T12:51:22.737Z,95136.73
2019-06-10T12:53:49.718Z,95143.45
2019-06-10T12:56:16.413Z,95155.77
2019-06-10T12:58:43.527Z,95171.47
2019-06-10T13:01:10.429Z,95167.53
2019-06-10T13:03:37.236Z,95155.50
2019-06-10T13:06:07.216Z,95143.10
2019-06-10T13:08:33.968Z,95129.51
2019-06-10T13:11:02.017Z,95124.23
2019-06-10T13:13:29.253Z,95117.75
2019-06-10T13:15:56.296Z,95103.09
2019-06-10T13:18:23.950Z,95081.02
2019-06-10T13:20:53.495Z,95075.44
2019-06-10T13:23:28.390Z,95094.98
2019-06-10T13:25:55.429Z,95110.81
2019-06-10T13:28:16.820Z,95111.84
2019-06-10T13:30:43.494Z,95125.38
2019-06-10T13:33:12.072Z,95134.58
2019-06-10T13:35:38.827Z,95134.69
2019-06-10T13:38:07.286Z,95120.67
2019-06-10T13:40:35.294Z,95122.78
2019-06-10T13:43:02.023Z,95122.19
2019-06-10T13:45:28.670Z,95124.30
2019-06-10T13:47:55.366Z,95129.09
2019-06-10T13:50:25.026Z,95116.42
2019-06-10T13:52:52.159Z,95114.14
2019-06-10T13:55:19.422Z,95112.95
2019-06-10T13:57:46.191Z,95114.41
2019-06-10T14:00:14.620Z,95118.78
2019-06-10T14:02:43.107Z,95124.81
2019-06-10T14:05:13.475Z,95135.86
2019-06-10T14:07:38.812Z,95133.48
2019-06-10T14:10:09.632Z,95120.02
2019-06-10T14:12:34.437Z,95122.41
2019-06-10T14:15:04.110Z,95128.78
2019-06-10T14:17:32.761Z,95135.02
2019-06-10T14:19:59.413Z,95127.41
2019-06-10T14:22:26.115Z,95118.69
2019-06-10T14:24:53.893Z,95117.46
2019-06-10T14:27:24.042Z,95115.22
2019-06-10T14:29:49.488Z,95113.00
2019-06-10T14:32:16.207Z,95113.38
2019-06-10T14:34:43.021Z,95102.75
2019-06-10T14:37:10.439Z,95092.30
2019-06-10T14:39:38.416Z,95089.44
2019-06-10T14:42:06.888Z,95086.70
2019-06-10T14:44:33.714Z,95076.30
2019-06-10T14:47:02.762Z,95075.11
2019-06-10T14:49:29.124Z,95059.89
2019-06-10T14:51:55.860Z,95060.81
2019-06-10T14:54:22.894Z,95045.25
2019-06-10T14:56:56.374Z,95048.19
2019-06-10T14:59:18.515Z,95037.27
2019-06-10T15:01:45.217Z,95028.85
2019-06-10T15:04:14.706Z,95030.99
2019-06-10T15:06:43.225Z,95035.36
2019-06-10T15:09:09.530Z,95036.41
2019-06-10T15:11:36.213Z,95039.13
2019-06-10T15:14:03.413Z,95027.59
2019-06-10T15:16:33.438Z,95020.86
2019-06-10T15:19:13.778Z,95011.25
2019-06-10T15:21:27.407Z,95012.69
2019-06-10T15:23:54.071Z,95022.13
2019-06-10T15:26:20.781Z,95019.09
2019-06-10T15:28:47.494Z,95017.41
2019-06-10T15:31:16.808Z,95006.44
2019-06-10T15:33:43.869Z,95005.21
2019-06-10T15:36:11.240Z,94995.76
2019-06-10T15:38:37.929Z,94989.30
2019-06-10T15:41:04.668Z,94980.52
2019-06-10T15:43:33.113Z,94980.95
2019-06-10T15:46:00.080Z,94976.31
2019-06-10T15:48:26.824Z,94981.88
2019-06-10T15:50:53.632Z,94968.38
2019-06-10T15:53:25.371Z,94961.39
2019-06-10T15:56:10.163Z,94976.95
2019-06-10T15:58:19.943Z,94984.66
2019-06-10T16:00:47.457Z,94979.78
2019-06-10T16:03:16.184Z,94974.34
2019-06-10T16:05:42.810Z,94979.78
2019-06-10T16:08:09.567Z,94996.05
2019-06-10T16:10:36.334Z,95004.70
2019-06-10T16:13:03.512Z,95011.22
2019-06-10T16:15:32.898Z,95007.93
2019-06-10T16:17:59.031Z,95023.95
2019-06-10T16:20:25.755Z,95022.48
2019-06-10T16:22:52.556Z,95011.52
2019-06-10T16:25:20.035Z,95013.97
2019-06-10T16:27:50.853Z,95020.84
2019-06-10T16:30:16.067Z,95025.35
2019-06-10T16:32:46.343Z,95023.16
2019-06-10T16:35:14.762Z,95036.41
2019-06-10T16:37:42.251Z,95036.84
2019-06-10T16:40:09.171Z,95050.46
2019-06-10T16:42:35.835Z,95049.16
2019-06-10T16:45:04.514Z,95058.33
2019-06-10T16:47:32.726Z,95066.44
2019-06-10T16:49:59.658Z,95065.94
2019-06-10T16:52:27.540Z,95057.30
2019-06-10T16:54:54.467Z,95058.30
2019-06-10T16:57:23.875Z,95064.91
2019-06-10T16:59:51.961Z,95066.98
2019-06-10T17:02:19.213Z,95070.66
2019-06-10T17:04:47.078Z,95073.09
2019-06-10T17:07:13.949Z,95069.83
2019-06-10T17:09:42.175Z,95075.33
2019-06-10T17:12:09.012Z,95059.08
2019-06-10T17:14:35.754Z,95057.18
2019-06-10T17:17:03.621Z,95052.19
2019-06-10T17:19:33.174Z,95043.92
2019-06-10T17:21:59.282Z,95041.79
2019-06-10T17:24:27.644Z,95035.11
2019-06-10T17:26:54.853Z,95024.14
2019-06-10T17:29:24.382Z,95015.23
2019-06-10T17:31:50.331Z,95011.50
2019-06-10T17:34:17.097Z,94999.82
2019-06-10T17:36:43.884Z,94987.02
2019-06-10T17:39:12.506Z,94981.99
2019-06-10T17:41:39.366Z,94995.63
2019-06-10T17:44:06.260Z,95000.16
2019-06-10T17:46:35.282Z,94997.90
2019-06-10T17:49:02.619Z,94993.07
2019-06-10T17:51:30.970Z,94996.97
2019-06-10T17:53:58.144Z,94999.73
2019-06-10T17:56:26.401Z,94992.13
2019-06-10T17:58:57.643Z,94989.01
2019-06-10T18:01:23.848Z,95002.03
2019-06-10T18:03:52.923Z,95009.97
2019-06-10T18:06:19.587Z,95007.73
2019-06-10T18:08:46.355Z,95013.70
2019-06-10T18:11:13.092Z,95026.50
2019-06-10T18:13:39.792Z,95027.59
2019-06-10T18:16:06.473Z,95018.47
2019-06-10T18:18:36.169Z,95026.69
2019-06-10T18:21:03.456Z,95035.78
2019-06-10T18:23:30.899Z,95044.58
2019-06-10T18:25:57.847Z,95038.70
2019-06-10T18:28:24.927Z,95042.20
2019-06-10T18:30:53.290Z,95043.83
2019-06-10T18:33:22.723Z,95043.95
2019-06-10T18:35:48.794Z,95042.70
2019-06-10T18:38:15.492Z,95041.33
2019-06-10T18:40:42.942Z,95047.87
2019-06-10T18:43:12.033Z,95041.11
2019-06-10T18:45:39.257Z,95048.70
2019-06-10T18:48:07.061Z,95051.05
2019-06-10T18:50:36.178Z,95051.59
2019-06-10T18:53:04.133Z,95049.55
2019-06-10T18:55:34.179Z,95050.55
2019-06-10T18:57:59.658Z,95068.23
2019-06-10T19:00:40.414Z,95063.86
2019-06-10T19:03:09.312Z,95080.15
2019-06-10T19:05:24.034Z,95091.49
2019-06-10T19:07:52.878Z,95092.97
2019-06-10T19:10:19.868Z,95101.02
2019-06-10T19:12:46.809Z,95107.98
2019-06-10T19:15:13.719Z,95116.58
2019-06-10T19:17:43.922Z,95115.30
2019-06-10T19:20:09.827Z,95126.09
2019-06-10T19:22:37.897Z,95126.55
2019-06-10T19:25:06.252Z,95139.36
2019-06-10T19:27:34.694Z,95143.84
2019-06-10T19:30:01.553Z,95151.83
2019-06-10T19:32:28.212Z,95153.91
2019-06-10T19:34:54.911Z,95157.91
2019-06-10T19:37:22.119Z,95157.57
2019-06-10T19:39:53.191Z,95172.34
2019-06-10T19:42:17.664Z,95166.81
2019-06-10T19:44:45.993Z,95171.29
2019-06-10T19:47:13.047Z,95171.64
2019-06-10T19:49:41.178Z,95164.75
2019-06-10T19:52:08.408Z,95168.90
2019-06-10T19:54:35.170Z,95159.25
2019-06-10T19:57:02.649Z,95164.06
2019-06-10T19:59:29.725Z,95169.77
2019-06-10T20:01:56.440Z,95151.94
2019-06-10T20:04:23.134Z,95160.05
2019-06-10T20:06:50.754Z,95162.47
2019-06-10T20:09:18.503Z,95171.12
2019-06-10T20:11:47.287Z,95166.55
2019-06-10T20:14:13.793Z,95165.11
2019-06-10T20:16:42.979Z,95166.73
2019-06-10T20:19:09.072Z,95179.09
2019-06-10T20:21:36.039Z,95178.52
2019-06-10T20:24:03.420Z,95181.59
2019-06-10T20:26:30.088Z,95172.55
2019-06-10T20:28:56.853Z,95169.34
2019-06-10T20:31:23.551Z,95169.56
2019-06-10T20:33:52.356Z,95169.40
2019-06-10T20:36:25.630Z,95164.55
2019-06-10T20:38:48.929Z,95153.37
2019-06-10T20:41:16.353Z,95147.19
2019-06-10T20:43:44.309Z,95133.66
2019-06-10T20:46:13.078Z,95125.69
2019-06-10T20:48:41.413Z,95113.55
2019-06-10T20:51:08.752Z,95107.50
2019-06-10T20:53:35.434Z,95090.45
2019-06-10T20:56:03.767Z,95086.64
2019-06-10T20:58:32.950Z,95082.70
2019-06-10T21:00:59.555Z,95077.58
2019-06-10T21:03:26.487Z,95070.25
2019-06-10T21:05:53.588Z,95071.60
2019-06-10T21:08:22.530Z,95062.59
2019-06-10T21:10:50.165Z,95053.84
2019-06-10T21:13:17.626Z,95039.17
2019-06-10T21:15:47.460Z,95040.64
2019-06-10T21:18:13.325Z,95036.37
2019-06-10T21:20:41.329Z,95029.27
2019-06-10T21:23:08.810Z,95023.94
2019-06-10T21:25:36.534Z,95023.55
2019-06-10T21:28:03.615Z,95030.67
2019-06-10T21:30:38.419Z,95030.47
2019-06-10T21:32:59.282Z,95030.12
2019-06-10T21:35:25.944Z,95028.28
2019-06-10T21:37:52.712Z,95026.01
2019-06-10T21:40:19.447Z,95024.34
2019-06-10T21:42:46.191Z,95024.54
2019-06-10T21:45:14.772Z,95031.98
2019-06-10T21:47:44.083Z,95029.56
2019-06-10T21:50:12.417Z,95036.15
2019-06-10T21:52:39.354Z,95031.61
2019-06-10T21:55:06.672Z,95032.19
2019-06-10T21:57:33.943Z,95029.47
2019-06-10T22:00:03.763Z,95033.19
2019-06-10T22:02:32.287Z,95026.50
2019-06-10T22:04:58.632Z,95015.84
2019-06-10T22:07:25.341Z,95012.74
2019-06-10T22:09:54.722Z,95014.39
2019-06-10T22:12:21.676Z,95010.95
2019-06-10T22:14:48.378Z,95006.27
2019-06-10T22:17:15.132Z,95011.25
2019-06-10T22:19:42.764Z,95013.42
2019-06-10T22:22:09.681Z,95011.25
2019-06-10T22:24:36.531Z,95005.47
2019-06-10T22:27:03.561Z,95003.75
2019-06-10T22:29:32.234Z,94997.47
2019-06-10T22:31:58.944Z,95003.17
2019-06-10T22:34:25.692Z,95006.41
2019-06-10T22:36:54.430Z,95000.26
2019-06-10T22:39:22.354Z,94996.26
2019-06-10T22:41:49.365Z,94995.23
2019-06-10T22:44:18.790Z,94994.80
2019-06-10T22:46:45.478Z,94997.00
2019-06-10T22:49:13.499Z,94998.07
2019-06-10T22:51:42.898Z,94987.76
2019-06-10T22:54:09.371Z,94981.97
2019-06-10T22:56:36.080Z,94974.92
2019-06-10T22:59:03.428Z,94966.58
2019-06-10T23:01:36.956Z,94957.98
2019-06-10T23:04:01.045Z,94960.91
2019-06-10T23:06:27.896Z,94946.88
2019-06-10T23:08:56.330Z,94940.56
2019-06-10T23:11:24.035Z,94927.06
2019-06-10T23:13:53.358Z,94928.20
2019-06-10T23:16:19.459Z,94925.50
2019-06-10T23:18:46.190Z,94929.88
2019-06-10T23:21:13.426Z,94922.15
2019-06-10T23:23:40.182Z,94920.12
2019-06-10T23:26:06.865Z,94915.78
2019-06-10T23:28:33.586Z,94919.80
2019-06-10T23:31:02.438Z,94912.46
2019-06-10T23:33:29.213Z,94912.46
2019-06-10T23:35:56.515Z,94910.70
2019-06-10T23:38:23.802Z,94905.16
2019-06-10T23:40:52.765Z,94904.34
2019-06-10T23:43:19.771Z,94885.88
2019-06-10T23:45:46.447Z,94894.47
2019-06-10T23:48:13.518Z,94888.16
2019-06-10T23:50:40.341Z,94869.59
2019-06-10T23:53:07.894Z,94875.33
2019-06-10T23:55:34.879Z,94870.69
2019-06-10T23:58:02.486Z,94873.57
